sensor_id;sensor_type;location;lat;lon;timestamp;P1;durP1;ratioP1;P2;durP2;ratioP2
12441;SDS011;6285;48.804;9.220;2023-02-28T00:01:29;4.45;;;3.28;;
12441;SDS011;6285;48.804;9.220;2023-02-28T00:03:56;4.88;;;3.33;;
12441;SDS011;6285;48.804;9.220;2023-02-28T00:06:23;5.10;;;3.25;;
12441;SDS011;6285;48.804;9.220;2023-02-28T00:08:51;3.40;;;2.97;;
12441;SDS011;6285;48.804;9.220;2023-02-28T00:11:18;4.28;;;2.97;;
12441;SDS011;6285;48.804;9.220;2023-02-28T00:13:47;4.53;;;3.15;;
12441;SDS011;6285;48.804;9.220;2023-02-28T00:16:16;4.45;;;3.25;;
12441;SDS011;6285;48.804;9.220;2023-02-28T00:18:44;3.72;;;3.10;;
12441;SDS011;6285;48.804;9.220;2023-02-28T00:21:12;4.28;;;2.63;;
12441;SDS011;6285;48.804;9.220;2023-02-28T00:23:39;5.63;;;3.15;;
12441;SDS011;6285;48.804;9.220;2023-02-28T00:26:06;4.35;;;2.78;;
12441;SDS011;6285;48.804;9.220;2023-02-28T00:28:33;3.90;;;2.58;;
12441;SDS011;6285;48.804;9.220;2023-02-28T00:31:00;3.38;;;2.90;;
12441;SDS011;6285;48.804;9.220;2023-02-28T00:33:29;3.90;;;3.03;;
12441;SDS011;6285;48.804;9.220;2023-02-28T00:36:03;3.80;;;2.90;;
12441;SDS011;6285;48.804;9.220;2023-02-28T00:38:31;5.18;;;3.10;;
12441;SDS011;6285;48.804;9.220;2023-02-28T00:40:58;4.47;;;3.00;;
12441;SDS011;6285;48.804;9.220;2023-02-28T00:43:29;2.97;;;2.65;;
12441;SDS011;6285;48.804;9.220;2023-02-28T00:45:56;5.18;;;3.08;;
12441;SDS011;6285;48.804;9.220;2023-02-28T00:48:24;5.93;;;3.10;;
12441;SDS011;6285;48.804;9.220;2023-02-28T00:50:52;5.57;;;3.47;;
12441;SDS011;6285;48.804;9.220;2023-02-28T00:53:19;6.45;;;2.70;;
12441;SDS011;6285;48.804;9.220;2023-02-28T00:55:47;4.10;;;3.08;;
12441;SDS011;6285;48.804;9.220;2023-02-28T00:58:14;4.45;;;2.80;;
12441;SDS011;6285;48.804;9.220;2023-02-28T01:00:41;6.05;;;2.95;;
12441;SDS011;6285;48.804;9.220;2023-02-28T01:03:08;4.28;;;2.97;;
12441;SDS011;6285;48.804;9.220;2023-02-28T01:05:35;4.20;;;2.72;;
12441;SDS011;6285;48.804;9.220;2023-02-28T01:08:04;3.67;;;3.10;;
12441;SDS011;6285;48.804;9.220;2023-02-28T01:10:31;4.15;;;3.30;;
12441;SDS011;6285;48.804;9.220;2023-02-28T01:12:58;5.65;;;3.50;;
12441;SDS011;6285;48.804;9.220;2023-02-28T01:15:25;3.88;;;2.90;;
12441;SDS011;6285;48.804;9.220;2023-02-28T01:17:52;5.28;;;3.40;;
12441;SDS011;6285;48.804;9.220;2023-02-28T01:20:19;3.67;;;3.38;;
12441;SDS011;6285;48.804;9.220;2023-02-28T01:22:47;4.38;;;3.55;;
12441;SDS011;6285;48.804;9.220;2023-02-28T01:25:15;4.07;;;3.03;;
12441;SDS011;6285;48.804;9.220;2023-02-28T01:27:42;3.67;;;3.17;;
12441;SDS011;6285;48.804;9.220;2023-02-28T01:30:10;4.07;;;3.17;;
12441;SDS011;6285;48.804;9.220;2023-02-28T01:32:37;4.47;;;3.38;;
12441;SDS011;6285;48.804;9.220;2023-02-28T01:35:05;5.90;;;3.30;;
12441;SDS011;6285;48.804;9.220;2023-02-28T01:37:32;4.88;;;3.70;;
12441;SDS011;6285;48.804;9.220;2023-02-28T01:39:59;3.50;;;3.17;;
12441;SDS011;6285;48.804;9.220;2023-02-28T01:42:28;5.38;;;3.53;;
12441;SDS011;6285;48.804;9.220;2023-02-28T01:44:57;4.68;;;3.58;;
12441;SDS011;6285;48.804;9.220;2023-02-28T01:47:25;3.55;;;3.25;;
12441;SDS011;6285;48.804;9.220;2023-02-28T01:49:52;4.00;;;3.50;;
12441;SDS011;6285;48.804;9.220;2023-02-28T01:52:20;3.90;;;3.50;;
12441;SDS011;6285;48.804;9.220;2023-02-28T01:54:47;3.53;;;3.22;;
12441;SDS011;6285;48.804;9.220;2023-02-28T01:57:18;4.53;;;3.72;;
12441;SDS011;6285;48.804;9.220;2023-02-28T01:59:50;6.28;;;3.33;;
12441;SDS011;6285;48.804;9.220;2023-02-28T02:02:19;4.72;;;3.45;;
12441;SDS011;6285;48.804;9.220;2023-02-28T02:04:50;4.00;;;3.50;;
12441;SDS011;6285;48.804;9.220;2023-02-28T02:07:17;4.55;;;2.97;;
12441;SDS011;6285;48.804;9.220;2023-02-28T02:09:44;4.90;;;3.80;;
12441;SDS011;6285;48.804;9.220;2023-02-28T02:12:14;5.53;;;3.42;;
12441;SDS011;6285;48.804;9.220;2023-02-28T02:14:49;4.50;;;3.80;;
12441;SDS011;6285;48.804;9.220;2023-02-28T02:17:24;5.45;;;3.80;;
12441;SDS011;6285;48.804;9.220;2023-02-28T02:20:00;6.43;;;3.87;;
12441;SDS011;6285;48.804;9.220;2023-02-28T02:22:40;4.07;;;3.67;;
12441;SDS011;6285;48.804;9.220;2023-02-28T02:25:18;6.80;;;4.18;;
12441;SDS011;6285;48.804;9.220;2023-02-28T02:27:48;4.88;;;3.63;;
12441;SDS011;6285;48.804;9.220;2023-02-28T02:33:25;4.38;;;3.47;;
12441;SDS011;6285;48.804;9.220;2023-02-28T02:35:57;5.18;;;4.25;;
12441;SDS011;6285;48.804;9.220;2023-02-28T02:38:29;5.25;;;3.75;;
12441;SDS011;6285;48.804;9.220;2023-02-28T02:40:59;6.40;;;4.18;;
12441;SDS011;6285;48.804;9.220;2023-02-28T02:43:30;6.25;;;4.07;;
12441;SDS011;6285;48.804;9.220;2023-02-28T02:46:01;5.35;;;3.80;;
12441;SDS011;6285;48.804;9.220;2023-02-28T02:48:30;4.85;;;4.05;;
12441;SDS011;6285;48.804;9.220;2023-02-28T02:51:00;5.72;;;4.00;;
12441;SDS011;6285;48.804;9.220;2023-02-28T02:53:28;5.80;;;4.13;;
12441;SDS011;6285;48.804;9.220;2023-02-28T02:55:56;4.32;;;3.50;;
12441;SDS011;6285;48.804;9.220;2023-02-28T02:58:25;4.68;;;4.10;;
12441;SDS011;6285;48.804;9.220;2023-02-28T03:00:55;6.53;;;3.95;;
12441;SDS011;6285;48.804;9.220;2023-02-28T03:03:24;5.50;;;4.00;;
12441;SDS011;6285;48.804;9.220;2023-02-28T03:05:55;6.82;;;4.20;;
12441;SDS011;6285;48.804;9.220;2023-02-28T03:08:24;6.07;;;3.95;;
12441;SDS011;6285;48.804;9.220;2023-02-28T03:10:52;5.30;;;4.00;;
12441;SDS011;6285;48.804;9.220;2023-02-28T03:16:09;5.00;;;4.10;;
12441;SDS011;6285;48.804;9.220;2023-02-28T03:18:43;6.03;;;4.07;;
12441;SDS011;6285;48.804;9.220;2023-02-28T03:21:15;6.07;;;4.13;;
12441;SDS011;6285;48.804;9.220;2023-02-28T03:23:46;5.25;;;4.07;;
12441;SDS011;6285;48.804;9.220;2023-02-28T03:26:17;5.93;;;4.00;;
12441;SDS011;6285;48.804;9.220;2023-02-28T03:28:49;5.70;;;4.25;;
12441;SDS011;6285;48.804;9.220;2023-02-28T03:31:20;5.60;;;4.10;;
12441;SDS011;6285;48.804;9.220;2023-02-28T03:33:50;5.93;;;4.82;;
12441;SDS011;6285;48.804;9.220;2023-02-28T03:36:21;7.38;;;4.53;;
12441;SDS011;6285;48.804;9.220;2023-02-28T03:38:51;4.97;;;4.30;;
12441;SDS011;6285;48.804;9.220;2023-02-28T03:41:20;4.63;;;4.07;;
12441;SDS011;6285;48.804;9.220;2023-02-28T03:43:49;5.05;;;3.97;;
12441;SDS011;6285;48.804;9.220;2023-02-28T03:46:18;5.10;;;4.10;;
12441;SDS011;6285;48.804;9.220;2023-02-28T03:48:48;5.03;;;4.32;;
12441;SDS011;6285;48.804;9.220;2023-02-28T03:51:18;5.05;;;4.38;;
12441;SDS011;6285;48.804;9.220;2023-02-28T03:53:49;7.15;;;5.03;;
12441;SDS011;6285;48.804;9.220;2023-02-28T03:56:19;6.10;;;4.47;;
12441;SDS011;6285;48.804;9.220;2023-02-28T03:58:48;7.00;;;4.95;;
12441;SDS011;6285;48.804;9.220;2023-02-28T04:01:17;5.53;;;4.32;;
12441;SDS011;6285;48.804;9.220;2023-02-28T04:03:46;4.72;;;4.22;;
12441;SDS011;6285;48.804;9.220;2023-02-28T04:06:14;5.43;;;4.03;;
12441;SDS011;6285;48.804;9.220;2023-02-28T04:08:42;5.90;;;4.50;;
12441;SDS011;6285;48.804;9.220;2023-02-28T04:11:12;5.57;;;4.95;;
12441;SDS011;6285;48.804;9.220;2023-02-28T04:13:44;5.80;;;4.72;;
12441;SDS011;6285;48.804;9.220;2023-02-28T04:16:11;5.25;;;4.75;;
12441;SDS011;6285;48.804;9.220;2023-02-28T04:18:39;5.60;;;4.57;;
12441;SDS011;6285;48.804;9.220;2023-02-28T04:21:08;5.90;;;4.72;;
12441;SDS011;6285;48.804;9.220;2023-02-28T04:23:35;7.07;;;5.10;;
12441;SDS011;6285;48.804;9.220;2023-02-28T04:26:02;5.95;;;4.60;;
12441;SDS011;6285;48.804;9.220;2023-02-28T04:28:30;5.55;;;5.03;;
12441;SDS011;6285;48.804;9.220;2023-02-28T04:31:00;5.85;;;4.35;;
12441;SDS011;6285;48.804;9.220;2023-02-28T04:33:27;6.38;;;4.75;;
12441;SDS011;6285;48.804;9.220;2023-02-28T04:35:58;6.20;;;4.88;;
12441;SDS011;6285;48.804;9.220;2023-02-28T04:38:25;7.18;;;5.65;;
12441;SDS011;6285;48.804;9.220;2023-02-28T04:40:53;8.98;;;6.10;;
12441;SDS011;6285;48.804;9.220;2023-02-28T04:43:20;9.13;;;6.20;;
12441;SDS011;6285;48.804;9.220;2023-02-28T04:45:47;7.95;;;5.43;;
12441;SDS011;6285;48.804;9.220;2023-02-28T04:48:15;5.75;;;4.75;;
12441;SDS011;6285;48.804;9.220;2023-02-28T04:50:42;6.93;;;5.05;;
12441;SDS011;6285;48.804;9.220;2023-02-28T04:53:09;5.68;;;4.80;;
12441;SDS011;6285;48.804;9.220;2023-02-28T04:55:37;7.38;;;5.03;;
12441;SDS011;6285;48.804;9.220;2023-02-28T04:58:05;5.82;;;4.75;;
12441;SDS011;6285;48.804;9.220;2023-02-28T05:00:32;7.45;;;4.90;;
12441;SDS011;6285;48.804;9.220;2023-02-28T05:02:59;6.90;;;5.00;;
12441;SDS011;6285;48.804;9.220;2023-02-28T05:05:27;6.03;;;5.40;;
12441;SDS011;6285;48.804;9.220;2023-02-28T05:07:55;6.53;;;5.10;;
12441;SDS011;6285;48.804;9.220;2023-02-28T05:10:22;6.70;;;5.07;;
12441;SDS011;6285;48.804;9.220;2023-02-28T05:12:49;6.78;;;4.63;;
12441;SDS011;6285;48.804;9.220;2023-02-28T05:15:16;6.43;;;5.07;;
12441;SDS011;6285;48.804;9.220;2023-02-28T05:17:43;6.20;;;5.30;;
12441;SDS011;6285;48.804;9.220;2023-02-28T05:20:11;6.43;;;4.90;;
12441;SDS011;6285;48.804;9.220;2023-02-28T05:22:40;6.28;;;4.95;;
12441;SDS011;6285;48.804;9.220;2023-02-28T05:25:08;6.68;;;5.15;;
12441;SDS011;6285;48.804;9.220;2023-02-28T05:27:37;6.93;;;5.38;;
12441;SDS011;6285;48.804;9.220;2023-02-28T05:30:05;6.22;;;4.78;;
12441;SDS011;6285;48.804;9.220;2023-02-28T05:32:35;7.40;;;5.55;;
12441;SDS011;6285;48.804;9.220;2023-02-28T05:35:02;7.28;;;5.47;;
12441;SDS011;6285;48.804;9.220;2023-02-28T05:37:29;7.35;;;5.22;;
12441;SDS011;6285;48.804;9.220;2023-02-28T05:39:58;6.97;;;5.50;;
12441;SDS011;6285;48.804;9.220;2023-02-28T05:42:25;7.95;;;5.63;;
12441;SDS011;6285;48.804;9.220;2023-02-28T05:44:53;7.80;;;5.50;;
12441;SDS011;6285;48.804;9.220;2023-02-28T05:47:20;7.35;;;5.20;;
12441;SDS011;6285;48.804;9.220;2023-02-28T05:49:47;8.20;;;5.32;;
12441;SDS011;6285;48.804;9.220;2023-02-28T05:52:14;7.95;;;5.85;;
12441;SDS011;6285;48.804;9.220;2023-02-28T05:54:41;6.88;;;5.47;;
12441;SDS011;6285;48.804;9.220;2023-02-28T05:57:09;7.13;;;5.57;;
12441;SDS011;6285;48.804;9.220;2023-02-28T05:59:36;7.50;;;5.47;;
12441;SDS011;6285;48.804;9.220;2023-02-28T06:02:05;8.23;;;5.55;;
12441;SDS011;6285;48.804;9.220;2023-02-28T06:04:32;7.63;;;5.47;;
12441;SDS011;6285;48.804;9.220;2023-02-28T06:06:59;8.02;;;5.57;;
12441;SDS011;6285;48.804;9.220;2023-02-28T06:09:26;9.38;;;5.50;;
12441;SDS011;6285;48.804;9.220;2023-02-28T06:11:54;7.20;;;5.72;;
12441;SDS011;6285;48.804;9.220;2023-02-28T06:14:22;7.55;;;5.65;;
12441;SDS011;6285;48.804;9.220;2023-02-28T06:16:49;9.82;;;6.30;;
12441;SDS011;6285;48.804;9.220;2023-02-28T06:19:16;9.93;;;6.38;;
12441;SDS011;6285;48.804;9.220;2023-02-28T06:21:43;7.68;;;5.45;;
12441;SDS011;6285;48.804;9.220;2023-02-28T06:24:10;7.88;;;5.93;;
12441;SDS011;6285;48.804;9.220;2023-02-28T06:26:37;28.05;;;7.80;;
12441;SDS011;6285;48.804;9.220;2023-02-28T06:29:04;12.32;;;6.13;;
12441;SDS011;6285;48.804;9.220;2023-02-28T06:31:33;10.50;;;5.82;;
12441;SDS011;6285;48.804;9.220;2023-02-28T06:34:00;9.18;;;6.15;;
12441;SDS011;6285;48.804;9.220;2023-02-28T06:36:27;9.48;;;6.40;;
12441;SDS011;6285;48.804;9.220;2023-02-28T06:38:54;7.43;;;5.72;;
12441;SDS011;6285;48.804;9.220;2023-02-28T06:41:21;7.57;;;5.55;;
12441;SDS011;6285;48.804;9.220;2023-02-28T06:43:49;7.65;;;6.05;;
12441;SDS011;6285;48.804;9.220;2023-02-28T06:46:16;7.63;;;5.88;;
12441;SDS011;6285;48.804;9.220;2023-02-28T06:48:44;9.02;;;6.15;;
12441;SDS011;6285;48.804;9.220;2023-02-28T06:51:12;7.70;;;5.57;;
12441;SDS011;6285;48.804;9.220;2023-02-28T06:53:41;7.45;;;6.25;;
12441;SDS011;6285;48.804;9.220;2023-02-28T06:56:09;7.65;;;5.72;;
12441;SDS011;6285;48.804;9.220;2023-02-28T06:58:37;9.02;;;6.32;;
12441;SDS011;6285;48.804;9.220;2023-02-28T07:01:05;8.65;;;6.53;;
12441;SDS011;6285;48.804;9.220;2023-02-28T07:03:32;9.15;;;6.75;;
12441;SDS011;6285;48.804;9.220;2023-02-28T07:06:00;9.25;;;6.28;;
12441;SDS011;6285;48.804;9.220;2023-02-28T07:08:29;9.43;;;6.30;;
12441;SDS011;6285;48.804;9.220;2023-02-28T07:10:56;10.02;;;7.68;;
12441;SDS011;6285;48.804;9.220;2023-02-28T07:13:23;9.05;;;6.47;;
12441;SDS011;6285;48.804;9.220;2023-02-28T07:15:54;7.75;;;6.13;;
12441;SDS011;6285;48.804;9.220;2023-02-28T07:18:22;9.27;;;6.18;;
12441;SDS011;6285;48.804;9.220;2023-02-28T07:20:50;9.77;;;6.40;;
12441;SDS011;6285;48.804;9.220;2023-02-28T07:23:18;9.05;;;6.78;;
12441;SDS011;6285;48.804;9.220;2023-02-28T07:25:44;9.43;;;6.50;;
12441;SDS011;6285;48.804;9.220;2023-02-28T07:28:11;8.38;;;6.65;;
12441;SDS011;6285;48.804;9.220;2023-02-28T07:30:39;8.50;;;6.38;;
12441;SDS011;6285;48.804;9.220;2023-02-28T07:33:07;7.70;;;6.45;;
12441;SDS011;6285;48.804;9.220;2023-02-28T07:35:34;9.07;;;6.78;;
12441;SDS011;6285;48.804;9.220;2023-02-28T07:38:00;7.80;;;6.40;;
12441;SDS011;6285;48.804;9.220;2023-02-28T07:40:30;9.20;;;6.63;;
12441;SDS011;6285;48.804;9.220;2023-02-28T07:42:58;7.63;;;6.20;;
12441;SDS011;6285;48.804;9.220;2023-02-28T07:45:25;8.13;;;6.68;;
12441;SDS011;6285;48.804;9.220;2023-02-28T07:47:53;9.30;;;6.88;;
12441;SDS011;6285;48.804;9.220;2023-02-28T07:50:21;15.65;;;8.10;;
12441;SDS011;6285;48.804;9.220;2023-02-28T07:52:48;11.15;;;6.90;;
12441;SDS011;6285;48.804;9.220;2023-02-28T07:55:15;10.23;;;7.55;;
12441;SDS011;6285;48.804;9.220;2023-02-28T07:57:44;18.33;;;10.07;;
12441;SDS011;6285;48.804;9.220;2023-02-28T08:00:11;11.73;;;7.90;;
12441;SDS011;6285;48.804;9.220;2023-02-28T08:02:38;10.05;;;8.20;;
12441;SDS011;6285;48.804;9.220;2023-02-28T08:05:06;11.75;;;8.02;;
12441;SDS011;6285;48.804;9.220;2023-02-28T08:07:33;11.40;;;7.50;;
12441;SDS011;6285;48.804;9.220;2023-02-28T08:10:00;12.15;;;8.10;;
12441;SDS011;6285;48.804;9.220;2023-02-28T08:12:27;7.82;;;6.53;;
12441;SDS011;6285;48.804;9.220;2023-02-28T08:14:56;10.98;;;7.68;;
12441;SDS011;6285;48.804;9.220;2023-02-28T08:17:22;8.63;;;7.05;;
12441;SDS011;6285;48.804;9.220;2023-02-28T08:19:49;12.05;;;6.88;;
12441;SDS011;6285;48.804;9.220;2023-02-28T08:22:16;10.10;;;7.38;;
12441;SDS011;6285;48.804;9.220;2023-02-28T08:24:43;11.32;;;8.05;;
12441;SDS011;6285;48.804;9.220;2023-02-28T08:27:10;9.98;;;7.97;;
12441;SDS011;6285;48.804;9.220;2023-02-28T08:29:38;10.05;;;7.88;;
12441;SDS011;6285;48.804;9.220;2023-02-28T08:32:06;10.50;;;8.50;;
12441;SDS011;6285;48.804;9.220;2023-02-28T08:34:33;9.65;;;8.10;;
12441;SDS011;6285;48.804;9.220;2023-02-28T08:37:00;10.00;;;7.68;;
12441;SDS011;6285;48.804;9.220;2023-02-28T08:39:26;10.88;;;7.72;;
12441;SDS011;6285;48.804;9.220;2023-02-28T08:41:53;11.25;;;7.93;;
12441;SDS011;6285;48.804;9.220;2023-02-28T08:44:20;10.05;;;7.60;;
12441;SDS011;6285;48.804;9.220;2023-02-28T08:46:47;10.30;;;8.02;;
12441;SDS011;6285;48.804;9.220;2023-02-28T08:49:15;9.88;;;7.80;;
12441;SDS011;6285;48.804;9.220;2023-02-28T08:51:42;12.25;;;8.23;;
12441;SDS011;6285;48.804;9.220;2023-02-28T08:54:09;11.50;;;7.95;;
12441;SDS011;6285;48.804;9.220;2023-02-28T08:56:41;9.75;;;7.45;;
12441;SDS011;6285;48.804;9.220;2023-02-28T08:59:08;11.93;;;7.65;;
12441;SDS011;6285;48.804;9.220;2023-02-28T09:01:35;12.65;;;8.45;;
12441;SDS011;6285;48.804;9.220;2023-02-28T09:04:02;8.77;;;7.85;;
12441;SDS011;6285;48.804;9.220;2023-02-28T09:06:30;11.57;;;8.10;;
12441;SDS011;6285;48.804;9.220;2023-02-28T09:08:58;11.82;;;8.52;;
12441;SDS011;6285;48.804;9.220;2023-02-28T09:11:26;9.63;;;7.95;;
12441;SDS011;6285;48.804;9.220;2023-02-28T09:13:53;10.65;;;8.48;;
12441;SDS011;6285;48.804;9.220;2023-02-28T09:16:21;10.85;;;8.25;;
12441;SDS011;6285;48.804;9.220;2023-02-28T09:18:48;11.45;;;7.97;;
12441;SDS011;6285;48.804;9.220;2023-02-28T09:21:16;10.10;;;7.53;;
12441;SDS011;6285;48.804;9.220;2023-02-28T09:23:46;10.93;;;7.88;;
12441;SDS011;6285;48.804;9.220;2023-02-28T09:26:14;9.38;;;7.60;;
12441;SDS011;6285;48.804;9.220;2023-02-28T09:28:41;10.18;;;8.43;;
12441;SDS011;6285;48.804;9.220;2023-02-28T09:31:10;12.00;;;8.50;;
12441;SDS011;6285;48.804;9.220;2023-02-28T09:33:38;10.02;;;7.88;;
12441;SDS011;6285;48.804;9.220;2023-02-28T09:36:06;12.43;;;8.60;;
12441;SDS011;6285;48.804;9.220;2023-02-28T09:38:33;11.77;;;8.38;;
12441;SDS011;6285;48.804;9.220;2023-02-28T09:41:08;10.18;;;8.20;;
12441;SDS011;6285;48.804;9.220;2023-02-28T09:43:39;12.98;;;8.15;;
12441;SDS011;6285;48.804;9.220;2023-02-28T09:46:08;11.20;;;8.20;;
12441;SDS011;6285;48.804;9.220;2023-02-28T09:48:45;10.57;;;8.38;;
12441;SDS011;6285;48.804;9.220;2023-02-28T09:51:15;12.45;;;9.50;;
12441;SDS011;6285;48.804;9.220;2023-02-28T09:53:52;10.00;;;8.23;;
12441;SDS011;6285;48.804;9.220;2023-02-28T09:56:21;10.98;;;8.68;;
12441;SDS011;6285;48.804;9.220;2023-02-28T09:58:53;10.82;;;9.05;;
12441;SDS011;6285;48.804;9.220;2023-02-28T10:01:24;11.30;;;8.60;;
12441;SDS011;6285;48.804;9.220;2023-02-28T10:03:58;11.48;;;8.98;;
12441;SDS011;6285;48.804;9.220;2023-02-28T10:06:29;9.35;;;8.30;;
12441;SDS011;6285;48.804;9.220;2023-02-28T10:09:02;10.35;;;7.47;;
12441;SDS011;6285;48.804;9.220;2023-02-28T10:11:36;13.05;;;8.85;;
12441;SDS011;6285;48.804;9.220;2023-02-28T10:14:04;11.18;;;7.90;;
12441;SDS011;6285;48.804;9.220;2023-02-28T10:16:40;9.68;;;7.85;;
12441;SDS011;6285;48.804;9.220;2023-02-28T10:19:12;11.07;;;8.52;;
12441;SDS011;6285;48.804;9.220;2023-02-28T10:21:43;11.95;;;8.93;;
12441;SDS011;6285;48.804;9.220;2023-02-28T10:24:16;10.70;;;8.85;;
12441;SDS011;6285;48.804;9.220;2023-02-28T10:26:48;9.48;;;8.18;;
12441;SDS011;6285;48.804;9.220;2023-02-28T10:29:17;12.00;;;8.55;;
12441;SDS011;6285;48.804;9.220;2023-02-28T10:31:44;11.27;;;8.45;;
12441;SDS011;6285;48.804;9.220;2023-02-28T10:34:12;9.32;;;8.07;;
12441;SDS011;6285;48.804;9.220;2023-02-28T10:36:39;10.00;;;8.15;;
12441;SDS011;6285;48.804;9.220;2023-02-28T10:42:04;9.20;;;8.10;;
12441;SDS011;6285;48.804;9.220;2023-02-28T10:44:44;11.95;;;8.88;;
12441;SDS011;6285;48.804;9.220;2023-02-28T10:47:13;11.77;;;8.05;;
12441;SDS011;6285;48.804;9.220;2023-02-28T10:49:42;9.43;;;8.38;;
12441;SDS011;6285;48.804;9.220;2023-02-28T10:52:13;11.00;;;8.48;;
12441;SDS011;6285;48.804;9.220;2023-02-28T10:55:13;10.90;;;8.20;;
12441;SDS011;6285;48.804;9.220;2023-02-28T10:57:42;13.30;;;8.82;;
12441;SDS011;6285;48.804;9.220;2023-02-28T11:00:13;10.93;;;8.40;;
12441;SDS011;6285;48.804;9.220;2023-02-28T11:02:41;10.93;;;8.20;;
12441;SDS011;6285;48.804;9.220;2023-02-28T11:05:22;11.20;;;8.82;;
12441;SDS011;6285;48.804;9.220;2023-02-28T11:07:51;10.93;;;8.10;;
12441;SDS011;6285;48.804;9.220;2023-02-28T11:10:19;10.75;;;8.23;;
12441;SDS011;6285;48.804;9.220;2023-02-28T11:12:53;9.45;;;7.78;;
12441;SDS011;6285;48.804;9.220;2023-02-28T11:15:22;11.75;;;8.15;;
12441;SDS011;6285;48.804;9.220;2023-02-28T11:17:54;9.05;;;7.97;;
12441;SDS011;6285;48.804;9.220;2023-02-28T11:20:23;9.60;;;7.95;;
12441;SDS011;6285;48.804;9.220;2023-02-28T11:22:52;10.00;;;8.20;;
12441;SDS011;6285;48.804;9.220;2023-02-28T11:25:21;10.45;;;8.18;;
12441;SDS011;6285;48.804;9.220;2023-02-28T11:27:50;8.65;;;7.75;;
12441;SDS011;6285;48.804;9.220;2023-02-28T11:30:26;10.40;;;7.82;;
12441;SDS011;6285;48.804;9.220;2023-02-28T11:32:53;9.70;;;8.48;;
12441;SDS011;6285;48.804;9.220;2023-02-28T11:35:21;9.55;;;8.55;;
12441;SDS011;6285;48.804;9.220;2023-02-28T11:37:50;10.60;;;8.27;;
12441;SDS011;6285;48.804;9.220;2023-02-28T11:40:18;9.60;;;8.23;;
12441;SDS011;6285;48.804;9.220;2023-02-28T11:42:48;10.98;;;8.48;;
12441;SDS011;6285;48.804;9.220;2023-02-28T11:45:42;13.13;;;8.07;;
12441;SDS011;6285;48.804;9.220;2023-02-28T11:48:12;9.60;;;8.48;;
12441;SDS011;6285;48.804;9.220;2023-02-28T11:50:44;11.30;;;8.35;;
12441;SDS011;6285;48.804;9.220;2023-02-28T11:53:16;10.43;;;8.07;;
12441;SDS011;6285;48.804;9.220;2023-02-28T11:55:47;11.07;;;9.07;;
12441;SDS011;6285;48.804;9.220;2023-02-28T11:58:19;10.20;;;8.07;;
12441;SDS011;6285;48.804;9.220;2023-02-28T12:01:01;11.13;;;8.63;;
12441;SDS011;6285;48.804;9.220;2023-02-28T12:03:32;9.60;;;8.23;;
12441;SDS011;6285;48.804;9.220;2023-02-28T12:06:09;10.07;;;8.38;;
12441;SDS011;6285;48.804;9.220;2023-02-28T12:08:43;11.70;;;8.57;;
12441;SDS011;6285;48.804;9.220;2023-02-28T12:11:13;10.45;;;8.15;;
12441;SDS011;6285;48.804;9.220;2023-02-28T12:13:46;10.27;;;8.65;;
12441;SDS011;6285;48.804;9.220;2023-02-28T12:16:22;10.13;;;8.15;;
12441;SDS011;6285;48.804;9.220;2023-02-28T12:21:38;10.85;;;9.75;;
12441;SDS011;6285;48.804;9.220;2023-02-28T12:24:14;11.10;;;8.50;;
12441;SDS011;6285;48.804;9.220;2023-02-28T12:26:44;10.35;;;8.63;;
12441;SDS011;6285;48.804;9.220;2023-02-28T12:29:14;10.15;;;8.65;;
12441;SDS011;6285;48.804;9.220;2023-02-28T12:31:47;10.05;;;8.52;;
12441;SDS011;6285;48.804;9.220;2023-02-28T12:34:17;9.65;;;7.85;;
12441;SDS011;6285;48.804;9.220;2023-02-28T12:36:48;10.23;;;8.57;;
12441;SDS011;6285;48.804;9.220;2023-02-28T12:39:18;10.38;;;8.70;;
12441;SDS011;6285;48.804;9.220;2023-02-28T12:41:48;10.35;;;8.55;;
12441;SDS011;6285;48.804;9.220;2023-02-28T12:44:20;11.52;;;9.20;;
12441;SDS011;6285;48.804;9.220;2023-02-28T12:46:50;8.90;;;7.65;;
12441;SDS011;6285;48.804;9.220;2023-02-28T12:49:21;10.48;;;8.98;;
12441;SDS011;6285;48.804;9.220;2023-02-28T12:51:50;11.18;;;8.73;;
12441;SDS011;6285;48.804;9.220;2023-02-28T12:54:21;11.40;;;8.75;;
12441;SDS011;6285;48.804;9.220;2023-02-28T12:56:53;10.35;;;8.48;;
12441;SDS011;6285;48.804;9.220;2023-02-28T12:59:23;12.55;;;8.40;;
12441;SDS011;6285;48.804;9.220;2023-02-28T13:02:09;12.05;;;8.50;;
12441;SDS011;6285;48.804;9.220;2023-02-28T13:10:37;9.15;;;7.90;;
12441;SDS011;6285;48.804;9.220;2023-02-28T13:13:05;12.05;;;9.00;;
12441;SDS011;6285;48.804;9.220;2023-02-28T13:15:39;10.55;;;8.27;;
12441;SDS011;6285;48.804;9.220;2023-02-28T13:18:20;9.60;;;8.07;;
12441;SDS011;6285;48.804;9.220;2023-02-28T13:20:52;10.45;;;8.27;;
12441;SDS011;6285;48.804;9.220;2023-02-28T13:26:12;9.85;;;8.25;;
12441;SDS011;6285;48.804;9.220;2023-02-28T13:34:26;9.00;;;7.40;;
12441;SDS011;6285;48.804;9.220;2023-02-28T13:36:53;9.45;;;7.95;;
12441;SDS011;6285;48.804;9.220;2023-02-28T13:39:47;9.93;;;7.80;;
12441;SDS011;6285;48.804;9.220;2023-02-28T13:42:34;9.10;;;7.55;;
12441;SDS011;6285;48.804;9.220;2023-02-28T13:45:22;10.35;;;8.00;;
12441;SDS011;6285;48.804;9.220;2023-02-28T13:47:53;10.98;;;7.78;;
12441;SDS011;6285;48.804;9.220;2023-02-28T13:50:23;10.15;;;7.80;;
12441;SDS011;6285;48.804;9.220;2023-02-28T13:52:53;8.95;;;7.95;;
12441;SDS011;6285;48.804;9.220;2023-02-28T13:55:24;9.75;;;7.95;;
12441;SDS011;6285;48.804;9.220;2023-02-28T13:57:56;8.02;;;7.22;;
12441;SDS011;6285;48.804;9.220;2023-02-28T14:00:30;8.68;;;7.45;;
12441;SDS011;6285;48.804;9.220;2023-02-28T14:03:05;9.23;;;7.93;;
12441;SDS011;6285;48.804;9.220;2023-02-28T14:05:34;10.75;;;7.85;;
12441;SDS011;6285;48.804;9.220;2023-02-28T14:08:04;9.68;;;7.35;;
12441;SDS011;6285;48.804;9.220;2023-02-28T14:10:34;11.30;;;7.95;;
12441;SDS011;6285;48.804;9.220;2023-02-28T14:13:11;9.48;;;7.72;;
12441;SDS011;6285;48.804;9.220;2023-02-28T14:15:40;9.35;;;7.43;;
12441;SDS011;6285;48.804;9.220;2023-02-28T14:18:14;10.10;;;8.60;;
12441;SDS011;6285;48.804;9.220;2023-02-28T14:20:44;9.50;;;8.32;;
12441;SDS011;6285;48.804;9.220;2023-02-28T14:23:14;10.05;;;7.80;;
12441;SDS011;6285;48.804;9.220;2023-02-28T14:25:43;10.38;;;8.25;;
12441;SDS011;6285;48.804;9.220;2023-02-28T14:28:17;10.20;;;7.65;;
12441;SDS011;6285;48.804;9.220;2023-02-28T14:30:53;9.15;;;7.63;;
12441;SDS011;6285;48.804;9.220;2023-02-28T14:33:24;8.57;;;7.68;;
12441;SDS011;6285;48.804;9.220;2023-02-28T14:35:57;10.38;;;7.88;;
12441;SDS011;6285;48.804;9.220;2023-02-28T14:38:29;8.02;;;6.97;;
12441;SDS011;6285;48.804;9.220;2023-02-28T14:40:58;8.18;;;7.03;;
12441;SDS011;6285;48.804;9.220;2023-02-28T14:43:27;9.57;;;7.13;;
12441;SDS011;6285;48.804;9.220;2023-02-28T14:45:55;8.70;;;7.53;;
12441;SDS011;6285;48.804;9.220;2023-02-28T14:48:24;8.50;;;7.60;;
12441;SDS011;6285;48.804;9.220;2023-02-28T14:50:52;9.13;;;7.55;;
12441;SDS011;6285;48.804;9.220;2023-02-28T14:53:22;8.75;;;7.72;;
12441;SDS011;6285;48.804;9.220;2023-02-28T14:55:50;11.27;;;7.65;;
12441;SDS011;6285;48.804;9.220;2023-02-28T14:58:25;9.95;;;8.07;;
12441;SDS011;6285;48.804;9.220;2023-02-28T15:00:53;8.25;;;7.45;;
12441;SDS011;6285;48.804;9.220;2023-02-28T15:03:21;9.20;;;7.35;;
12441;SDS011;6285;48.804;9.220;2023-02-28T15:05:52;8.60;;;7.70;;
12441;SDS011;6285;48.804;9.220;2023-02-28T15:08:19;9.38;;;8.40;;
12441;SDS011;6285;48.804;9.220;2023-02-28T15:10:52;15.93;;;8.25;;
12441;SDS011;6285;48.804;9.220;2023-02-28T15:13:19;9.13;;;7.97;;
12441;SDS011;6285;48.804;9.220;2023-02-28T15:15:48;9.07;;;8.15;;
12441;SDS011;6285;48.804;9.220;2023-02-28T15:18:22;9.75;;;8.27;;
12441;SDS011;6285;48.804;9.220;2023-02-28T15:20:51;9.20;;;8.05;;
12441;SDS011;6285;48.804;9.220;2023-02-28T15:23:18;11.05;;;8.18;;
12441;SDS011;6285;48.804;9.220;2023-02-28T15:25:46;9.15;;;7.60;;
12441;SDS011;6285;48.804;9.220;2023-02-28T15:28:16;10.55;;;8.35;;
12441;SDS011;6285;48.804;9.220;2023-02-28T15:30:56;12.50;;;8.52;;
12441;SDS011;6285;48.804;9.220;2023-02-28T15:33:24;9.85;;;8.52;;
12441;SDS011;6285;48.804;9.220;2023-02-28T15:35:51;11.45;;;8.80;;
12441;SDS011;6285;48.804;9.220;2023-02-28T15:38:29;10.25;;;7.75;;